sensor_id;sensor_type;location;lat;lon;timestamp;temperature;humidity
49679;DHT22;35570;48.218;16.326;2023-05-10T00:02:24;13.30;68.30
49679;DHT22;35570;48.218;16.326;2023-05-10T00:04:50;13.30;68.80
49679;DHT22;35570;48.218;16.326;2023-05-10T00:07:16;13.30;69.20
49679;DHT22;35570;48.218;16.326;2023-05-10T00:09:44;13.30;69.50
49679;DHT22;35570;48.218;16.326;2023-05-10T00:12:10;13.30;69.10
49679;DHT22;35570;48.218;16.326;2023-05-10T00:14:36;13.20;69.20
49679;DHT22;35570;48.218;16.326;2023-05-10T00:17:01;13.20;69.90
49679;DHT22;35570;48.218;16.326;2023-05-10T00:19:27;13.20;69.40
49679;DHT22;35570;48.218;16.326;2023-05-10T00:21:53;13.20;69.90
49679;DHT22;35570;48.218;16.326;2023-05-10T00:24:18;13.20;70.60
49679;DHT22;35570;48.218;16.326;2023-05-10T00:26:44;13.20;71.70
49679;DHT22;35570;48.218;16.326;2023-05-10T00:29:10;13.10;71.30
49679;DHT22;35570;48.218;16.326;2023-05-10T00:31:35;13.20;72.10
49679;DHT22;35570;48.218;16.326;2023-05-10T00:34:01;13.10;72.30
49679;DHT22;35570;48.218;16.326;2023-05-10T00:36:26;13.10;73.60
49679;DHT22;35570;48.218;16.326;2023-05-10T00:38:53;13.00;73.30
49679;DHT22;35570;48.218;16.326;2023-05-10T00:41:19;13.10;74.10
49679;DHT22;35570;48.218;16.326;2023-05-10T00:43:46;13.00;74.30
49679;DHT22;35570;48.218;16.326;2023-05-10T00:46:12;13.00;74.00
49679;DHT22;35570;48.218;16.326;2023-05-10T00:48:39;13.00;74.80
49679;DHT22;35570;48.218;16.326;2023-05-10T00:51:05;13.00;74.80
49679;DHT22;35570;48.218;16.326;2023-05-10T00:53:37;12.90;75.70
49679;DHT22;35570;48.218;16.326;2023-05-10T00:56:03;12.90;75.60
49679;DHT22;35570;48.218;16.326;2023-05-10T00:58:29;12.90;76.30
49679;DHT22;35570;48.218;16.326;2023-05-10T01:00:56;12.80;76.60
49679;DHT22;35570;48.218;16.326;2023-05-10T01:03:23;12.80;76.10
49679;DHT22;35570;48.218;16.326;2023-05-10T01:05:51;12.80;77.30
49679;DHT22;35570;48.218;16.326;2023-05-10T01:08:16;12.80;77.30
49679;DHT22;35570;48.218;16.326;2023-05-10T01:10:43;12.80;78.10
49679;DHT22;35570;48.218;16.326;2023-05-10T01:13:09;12.80;78.30
49679;DHT22;35570;48.218;16.326;2023-05-10T01:15:36;12.70;78.50
49679;DHT22;35570;48.218;16.326;2023-05-10T01:18:03;12.70;79.10
49679;DHT22;35570;48.218;16.326;2023-05-10T01:20:37;12.70;80.80
49679;DHT22;35570;48.218;16.326;2023-05-10T01:33:59;12.50;84.60
49679;DHT22;35570;48.218;16.326;2023-05-10T01:41:49;12.50;86.10
49679;DHT22;35570;48.218;16.326;2023-05-10T01:44:37;12.50;87.40
49679;DHT22;35570;48.218;16.326;2023-05-10T01:47:11;12.40;86.80
49679;DHT22;35570;48.218;16.326;2023-05-10T01:49:50;12.40;89.50
49679;DHT22;35570;48.218;16.326;2023-05-10T01:52:19;12.40;88.60
49679;DHT22;35570;48.218;16.326;2023-05-10T01:54:56;12.40;90.40
49679;DHT22;35570;48.218;16.326;2023-05-10T01:57:27;12.30;89.10
49679;DHT22;35570;48.218;16.326;2023-05-10T01:59:58;12.30;90.40
49679;DHT22;35570;48.218;16.326;2023-05-10T02:02:25;12.30;90.10
49679;DHT22;35570;48.218;16.326;2023-05-10T02:04:53;12.30;90.10
49679;DHT22;35570;48.218;16.326;2023-05-10T02:07:21;12.30;90.60
49679;DHT22;35570;48.218;16.326;2023-05-10T02:09:48;12.30;90.60
49679;DHT22;35570;48.218;16.326;2023-05-10T02:12:15;12.20;91.00
49679;DHT22;35570;48.218;16.326;2023-05-10T02:14:42;12.20;91.70
49679;DHT22;35570;48.218;16.326;2023-05-10T02:17:09;12.20;91.30
49679;DHT22;35570;48.218;16.326;2023-05-10T02:19:39;12.20;92.20
49679;DHT22;35570;48.218;16.326;2023-05-10T02:22:06;12.10;91.90
49679;DHT22;35570;48.218;16.326;2023-05-10T02:24:34;12.10;92.10
49679;DHT22;35570;48.218;16.326;2023-05-10T02:27:03;12.00;91.90
49679;DHT22;35570;48.218;16.326;2023-05-10T02:29:31;12.00;92.50
49679;DHT22;35570;48.218;16.326;2023-05-10T02:31:57;12.00;92.30
49679;DHT22;35570;48.218;16.326;2023-05-10T02:34:25;11.90;92.50
49679;DHT22;35570;48.218;16.326;2023-05-10T02:36:52;11.80;92.90
49679;DHT22;35570;48.218;16.326;2023-05-10T02:39:19;11.80;93.70
49679;DHT22;35570;48.218;16.326;2023-05-10T02:41:47;11.80;93.10
49679;DHT22;35570;48.218;16.326;2023-05-10T02:44:15;11.80;94.00
49679;DHT22;35570;48.218;16.326;2023-05-10T02:46:42;11.80;93.50
49679;DHT22;35570;48.218;16.326;2023-05-10T02:49:08;11.70;93.70
49679;DHT22;35570;48.218;16.326;2023-05-10T02:51:36;11.70;94.10
49679;DHT22;35570;48.218;16.326;2023-05-10T02:54:09;11.80;94.00
49679;DHT22;35570;48.218;16.326;2023-05-10T02:56:40;11.80;94.30
49679;DHT22;35570;48.218;16.326;2023-05-10T02:59:06;11.80;94.10
49679;DHT22;35570;48.218;16.326;2023-05-10T03:01:32;11.80;94.40
49679;DHT22;35570;48.218;16.326;2023-05-10T03:03:57;11.80;94.30
49679;DHT22;35570;48.218;16.326;2023-05-10T03:06:23;11.70;94.30
49679;DHT22;35570;48.218;16.326;2023-05-10T03:08:49;11.70;94.50
49679;DHT22;35570;48.218;16.326;2023-05-10T03:16:52;11.60;95.00
49679;DHT22;35570;48.218;16.326;2023-05-10T03:19:34;11.60;95.00
49679;DHT22;35570;48.218;16.326;2023-05-10T03:22:06;11.60;95.50
49679;DHT22;35570;48.218;16.326;2023-05-10T03:24:35;11.60;95.70
49679;DHT22;35570;48.218;16.326;2023-05-10T03:27:02;11.60;95.70
49679;DHT22;35570;48.218;16.326;2023-05-10T03:29:30;11.70;95.60
49679;DHT22;35570;48.218;16.326;2023-05-10T03:31:58;11.60;95.80
49679;DHT22;35570;48.218;16.326;2023-05-10T03:34:25;11.60;95.80
49679;DHT22;35570;48.218;16.326;2023-05-10T03:36:50;11.50;95.20
49679;DHT22;35570;48.218;16.326;2023-05-10T03:39:16;11.60;96.70
49679;DHT22;35570;48.218;16.326;2023-05-10T03:41:42;11.60;97.30
49679;DHT22;35570;48.218;16.326;2023-05-10T03:44:15;11.70;96.40
49679;DHT22;35570;48.218;16.326;2023-05-10T03:46:40;11.70;95.70
49679;DHT22;35570;48.218;16.326;2023-05-10T03:49:06;11.80;95.60
49679;DHT22;35570;48.218;16.326;2023-05-10T03:51:35;11.70;95.20
49679;DHT22;35570;48.218;16.326;2023-05-10T03:54:00;11.70;95.80
49679;DHT22;35570;48.218;16.326;2023-05-10T03:56:26;11.70;95.00
49679;DHT22;35570;48.218;16.326;2023-05-10T03:58:52;11.70;95.30
49679;DHT22;35570;48.218;16.326;2023-05-10T04:01:17;11.60;95.30
49679;DHT22;35570;48.218;16.326;2023-05-10T04:03:43;11.50;95.90
49679;DHT22;35570;48.218;16.326;2023-05-10T04:06:08;11.50;96.00
49679;DHT22;35570;48.218;16.326;2023-05-10T04:08:37;11.50;96.30
49679;DHT22;35570;48.218;16.326;2023-05-10T04:11:21;11.50;95.90
49679;DHT22;35570;48.218;16.326;2023-05-10T04:13:48;11.50;95.50
49679;DHT22;35570;48.218;16.326;2023-05-10T04:16:14;11.50;96.30
49679;DHT22;35570;48.218;16.326;2023-05-10T04:18:39;11.50;96.00
49679;DHT22;35570;48.218;16.326;2023-05-10T04:21:11;11.60;95.70
49679;DHT22;35570;48.218;16.326;2023-05-10T04:23:37;11.60;96.50
49679;DHT22;35570;48.218;16.326;2023-05-10T04:26:03;11.60;96.00
49679;DHT22;35570;48.218;16.326;2023-05-10T04:28:29;11.60;95.90
49679;DHT22;35570;48.218;16.326;2023-05-10T04:31:05;11.60;96.00
49679;DHT22;35570;48.218;16.326;2023-05-10T04:33:31;11.60;95.40
49679;DHT22;35570;48.218;16.326;2023-05-10T04:35:57;11.70;94.80
49679;DHT22;35570;48.218;16.326;2023-05-10T04:38:22;11.60;95.30
49679;DHT22;35570;48.218;16.326;2023-05-10T04:40:48;11.60;95.50
49679;DHT22;35570;48.218;16.326;2023-05-10T04:43:13;11.60;95.40
49679;DHT22;35570;48.218;16.326;2023-05-10T04:45:39;11.60;95.70
49679;DHT22;35570;48.218;16.326;2023-05-10T04:48:05;11.60;95.40
49679;DHT22;35570;48.218;16.326;2023-05-10T04:50:33;11.60;95.40
49679;DHT22;35570;48.218;16.326;2023-05-10T04:53:04;11.70;95.90
49679;DHT22;35570;48.218;16.326;2023-05-10T04:55:30;11.70;95.50
49679;DHT22;35570;48.218;16.326;2023-05-10T04:57:55;11.80;95.20
49679;DHT22;35570;48.218;16.326;2023-05-10T05:00:22;11.80;94.40
49679;DHT22;35570;48.218;16.326;2023-05-10T05:02:48;11.90;94.60
49679;DHT22;35570;48.218;16.326;2023-05-10T05:05:14;12.00;94.70
49679;DHT22;35570;48.218;16.326;2023-05-10T05:07:39;12.00;94.40
49679;DHT22;35570;48.218;16.326;2023-05-10T05:10:08;12.00;94.90
49679;DHT22;35570;48.218;16.326;2023-05-10T05:12:35;12.00;94.50
49679;DHT22;35570;48.218;16.326;2023-05-10T05:15:01;12.10;94.30
49679;DHT22;35570;48.218;16.326;2023-05-10T05:17:27;12.10;93.20
49679;DHT22;35570;48.218;16.326;2023-05-10T05:19:52;12.10;93.20
49679;DHT22;35570;48.218;16.326;2023-05-10T05:22:18;12.10;93.50
49679;DHT22;35570;48.218;16.326;2023-05-10T05:24:44;12.10;93.70
49679;DHT22;35570;48.218;16.326;2023-05-10T05:27:11;12.20;93.00
49679;DHT22;35570;48.218;16.326;2023-05-10T05:29:36;12.30;92.90
49679;DHT22;35570;48.218;16.326;2023-05-10T05:32:02;12.40;93.00
49679;DHT22;35570;48.218;16.326;2023-05-10T05:34:27;12.40;92.40
49679;DHT22;35570;48.218;16.326;2023-05-10T05:36:53;12.40;92.00
49679;DHT22;35570;48.218;16.326;2023-05-10T05:39:19;12.50;91.90
49679;DHT22;35570;48.218;16.326;2023-05-10T05:41:45;12.60;91.40
49679;DHT22;35570;48.218;16.326;2023-05-10T05:44:18;12.60;90.60
49679;DHT22;35570;48.218;16.326;2023-05-10T05:46:44;12.70;90.30
49679;DHT22;35570;48.218;16.326;2023-05-10T05:49:10;12.80;90.10
49679;DHT22;35570;48.218;16.326;2023-05-10T05:51:35;12.80;90.00
49679;DHT22;35570;48.218;16.326;2023-05-10T05:54:01;13.00;89.90
49679;DHT22;35570;48.218;16.326;2023-05-10T05:56:28;13.10;88.70
49679;DHT22;35570;48.218;16.326;2023-05-10T05:58:54;13.20;87.10
49679;DHT22;35570;48.218;16.326;2023-05-10T06:01:20;13.30;86.40
49679;DHT22;35570;48.218;16.326;2023-05-10T06:03:46;13.40;84.80
49679;DHT22;35570;48.218;16.326;2023-05-10T06:06:12;13.50;84.60
49679;DHT22;35570;48.218;16.326;2023-05-10T06:08:38;13.60;83.00
49679;DHT22;35570;48.218;16.326;2023-05-10T06:11:03;13.70;83.00
49679;DHT22;35570;48.218;16.326;2023-05-10T06:13:29;13.80;82.40
49679;DHT22;35570;48.218;16.326;2023-05-10T06:15:58;13.90;80.70
49679;DHT22;35570;48.218;16.326;2023-05-10T06:18:24;14.00;80.30
49679;DHT22;35570;48.218;16.326;2023-05-10T06:20:50;14.10;80.20
49679;DHT22;35570;48.218;16.326;2023-05-10T06:23:16;14.10;79.10
49679;DHT22;35570;48.218;16.326;2023-05-10T06:25:41;14.20;78.40
49679;DHT22;35570;48.218;16.326;2023-05-10T06:28:07;14.30;78.00
49679;DHT22;35570;48.218;16.326;2023-05-10T06:30:32;14.30;77.10
49679;DHT22;35570;48.218;16.326;2023-05-10T06:32:58;14.40;76.90
49679;DHT22;35570;48.218;16.326;2023-05-10T06:35:24;14.40;74.70
49679;DHT22;35570;48.218;16.326;2023-05-10T06:37:50;14.50;73.90
49679;DHT22;35570;48.218;16.326;2023-05-10T06:40:16;14.50;73.50
49679;DHT22;35570;48.218;16.326;2023-05-10T06:42:42;14.60;73.60
49679;DHT22;35570;48.218;16.326;2023-05-10T06:45:08;14.70;71.10
49679;DHT22;35570;48.218;16.326;2023-05-10T06:47:34;14.70;71.50
49679;DHT22;35570;48.218;16.326;2023-05-10T06:50:00;14.70;71.10
49679;DHT22;35570;48.218;16.326;2023-05-10T06:52:25;14.80;71.40
49679;DHT22;35570;48.218;16.326;2023-05-10T06:54:51;14.90;70.70
49679;DHT22;35570;48.218;16.326;2023-05-10T06:57:17;15.00;70.40
49679;DHT22;35570;48.218;16.326;2023-05-10T06:59:44;15.10;71.00
49679;DHT22;35570;48.218;16.326;2023-05-10T07:02:09;15.20;73.10
49679;DHT22;35570;48.218;16.326;2023-05-10T07:04:35;15.30;70.60
49679;DHT22;35570;48.218;16.326;2023-05-10T07:07:01;15.40;69.30
49679;DHT22;35570;48.218;16.326;2023-05-10T07:09:27;15.50;68.30
49679;DHT22;35570;48.218;16.326;2023-05-10T07:11:52;15.50;67.30
49679;DHT22;35570;48.218;16.326;2023-05-10T07:14:18;15.50;67.80
49679;DHT22;35570;48.218;16.326;2023-05-10T07:16:43;15.50;66.60
49679;DHT22;35570;48.218;16.326;2023-05-10T07:19:09;15.60;66.80
49679;DHT22;35570;48.218;16.326;2023-05-10T07:21:36;15.60;67.00
49679;DHT22;35570;48.218;16.326;2023-05-10T07:24:02;15.70;67.10
49679;DHT22;35570;48.218;16.326;2023-05-10T07:26:28;15.80;66.40
49679;DHT22;35570;48.218;16.326;2023-05-10T07:28:54;15.80;65.20
49679;DHT22;35570;48.218;16.326;2023-05-10T07:31:19;15.80;65.00
49679;DHT22;35570;48.218;16.326;2023-05-10T07:33:45;15.80;64.70
49679;DHT22;35570;48.218;16.326;2023-05-10T07:36:11;15.80;65.30
49679;DHT22;35570;48.218;16.326;2023-05-10T07:38:37;15.90;66.70
49679;DHT22;35570;48.218;16.326;2023-05-10T07:41:02;16.00;66.10
49679;DHT22;35570;48.218;16.326;2023-05-10T07:43:28;16.10;67.30
49679;DHT22;35570;48.218;16.326;2023-05-10T07:45:53;16.20;66.20
49679;DHT22;35570;48.218;16.326;2023-05-10T07:48:19;16.30;65.00
49679;DHT22;35570;48.218;16.326;2023-05-10T07:50:45;16.30;65.00
49679;DHT22;35570;48.218;16.326;2023-05-10T07:53:10;16.40;65.70
49679;DHT22;35570;48.218;16.326;2023-05-10T07:55:36;16.40;65.90
49679;DHT22;35570;48.218;16.326;2023-05-10T07:58:02;16.40;65.80
49679;DHT22;35570;48.218;16.326;2023-05-10T08:00:27;16.40;65.20
49679;DHT22;35570;48.218;16.326;2023-05-10T08:02:53;16.40;65.00
49679;DHT22;35570;48.218;16.326;2023-05-10T08:05:18;16.40;65.00
49679;DHT22;35570;48.218;16.326;2023-05-10T08:07:44;16.40;65.50
49679;DHT22;35570;48.218;16.326;2023-05-10T08:10:10;16.40;65.80
49679;DHT22;35570;48.218;16.326;2023-05-10T08:12:38;16.50;65.70
49679;DHT22;35570;48.218;16.326;2023-05-10T08:15:04;16.60;65.00
49679;DHT22;35570;48.218;16.326;2023-05-10T08:17:30;16.70;65.80
49679;DHT22;35570;48.218;16.326;2023-05-10T08:19:56;16.80;66.10
49679;DHT22;35570;48.218;16.326;2023-05-10T08:22:21;17.00;64.70
49679;DHT22;35570;48.218;16.326;2023-05-10T08:24:47;17.20;63.80
49679;DHT22;35570;48.218;16.326;2023-05-10T08:27:13;17.40;62.20
49679;DHT22;35570;48.218;16.326;2023-05-10T08:29:38;17.60;61.80
49679;DHT22;35570;48.218;16.326;2023-05-10T08:32:04;17.60;60.90
49679;DHT22;35570;48.218;16.326;2023-05-10T08:34:30;17.40;61.80
49679;DHT22;35570;48.218;16.326;2023-05-10T08:36:56;17.20;62.90
49679;DHT22;35570;48.218;16.326;2023-05-10T08:39:22;17.00;63.40
49679;DHT22;35570;48.218;16.326;2023-05-10T08:41:51;17.00;64.10
49679;DHT22;35570;48.218;16.326;2023-05-10T08:44:20;17.10;62.90
49679;DHT22;35570;48.218;16.326;2023-05-10T08:46:46;17.20;63.00
49679;DHT22;35570;48.218;16.326;2023-05-10T08:49:20;17.30;62.00
49679;DHT22;35570;48.218;16.326;2023-05-10T08:51:51;17.40;63.30
49679;DHT22;35570;48.218;16.326;2023-05-10T08:54:19;17.60;61.60
49679;DHT22;35570;48.218;16.326;2023-05-10T08:56:45;17.60;62.40
49679;DHT22;35570;48.218;16.326;2023-05-10T08:59:10;17.60;62.80
49679;DHT22;35570;48.218;16.326;2023-05-10T09:01:38;17.80;61.30
49679;DHT22;35570;48.218;16.326;2023-05-10T09:04:04;17.90;61.10
49679;DHT22;35570;48.218;16.326;2023-05-10T09:06:30;17.90;61.50
49679;DHT22;35570;48.218;16.326;2023-05-10T09:08:55;18.00;61.00
49679;DHT22;35570;48.218;16.326;2023-05-10T09:11:22;18.00;60.40
49679;DHT22;35570;48.218;16.326;2023-05-10T09:13:48;18.00;61.10
49679;DHT22;35570;48.218;16.326;2023-05-10T09:16:16;18.30;60.30
49679;DHT22;35570;48.218;16.326;2023-05-10T09:18:41;18.50;59.70
49679;DHT22;35570;48.218;16.326;2023-05-10T09:21:07;18.40;58.30
49679;DHT22;35570;48.218;16.326;2023-05-10T09:23:33;18.40;58.80
49679;DHT22;35570;48.218;16.326;2023-05-10T09:29:04;18.30;59.50
49679;DHT22;35570;48.218;16.326;2023-05-10T09:31:49;18.50;60.00
49679;DHT22;35570;48.218;16.326;2023-05-10T09:34:30;18.50;60.60
49679;DHT22;35570;48.218;16.326;2023-05-10T09:36:57;18.40;60.20
49679;DHT22;35570;48.218;16.326;2023-05-10T09:39:36;18.30;58.90
49679;DHT22;35570;48.218;16.326;2023-05-10T09:42:06;18.20;58.60
49679;DHT22;35570;48.218;16.326;2023-05-10T09:44:33;18.30;58.20
49679;DHT22;35570;48.218;16.326;2023-05-10T09:47:00;18.50;58.50
49679;DHT22;35570;48.218;16.326;2023-05-10T09:49:26;18.80;57.30
49679;DHT22;35570;48.218;16.326;2023-05-10T09:52:03;19.10;56.90
49679;DHT22;35570;48.218;16.326;2023-05-10T09:54:29;19.30;57.00
49679;DHT22;35570;48.218;16.326;2023-05-10T09:56:55;19.40;57.10
49679;DHT22;35570;48.218;16.326;2023-05-10T09:59:20;19.50;56.30
49679;DHT22;35570;48.218;16.326;2023-05-10T10:01:50;19.70;56.30
49679;DHT22;35570;48.218;16.326;2023-05-10T10:04:17;19.40;55.50
49679;DHT22;35570;48.218;16.326;2023-05-10T10:06:42;19.30;55.80
49679;DHT22;35570;48.218;16.326;2023-05-10T10:09:09;19.10;56.60
49679;DHT22;35570;48.218;16.326;2023-05-10T10:11:36;18.90;57.10
49679;DHT22;35570;48.218;16.326;2023-05-10T10:14:02;19.00;55.60
49679;DHT22;35570;48.218;16.326;2023-05-10T10:16:31;19.20;55.80
49679;DHT22;35570;48.218;16.326;2023-05-10T10:18:57;19.50;55.00
49679;DHT22;35570;48.218;16.326;2023-05-10T10:21:24;19.70;55.00
49679;DHT22;35570;48.218;16.326;2023-05-10T10:23:50;20.00;55.00
49679;DHT22;35570;48.218;16.326;2023-05-10T10:26:18;20.20;54.30
49679;DHT22;35570;48.218;16.326;2023-05-10T10:31:51;20.10;52.40
49679;DHT22;35570;48.218;16.326;2023-05-10T10:34:30;20.20;53.30
49679;DHT22;35570;48.218;16.326;2023-05-10T10:36:57;20.50;52.60
49679;DHT22;35570;48.218;16.326;2023-05-10T10:39:24;20.80;51.90
49679;DHT22;35570;48.218;16.326;2023-05-10T10:41:54;21.10;51.20
49679;DHT22;35570;48.218;16.326;2023-05-10T10:44:41;21.40;51.40
49679;DHT22;35570;48.218;16.326;2023-05-10T10:52:26;22.10;48.50
49679;DHT22;35570;48.218;16.326;2023-05-10T10:57:47;22.10;49.10
49679;DHT22;35570;48.218;16.326;2023-05-10T11:00:28;21.80;49.80
49679;DHT22;35570;48.218;16.326;2023-05-10T11:03:08;21.40;50.10
49679;DHT22;35570;48.218;16.326;2023-05-10T11:05:44;21.00;50.30
49679;DHT22;35570;48.218;16.326;2023-05-10T11:08:17;20.80;51.10
49679;DHT22;35570;48.218;16.326;2023-05-10T11:13:45;20.70;52.70
49679;DHT22;35570;48.218;16.326;2023-05-10T11:18:36;21.40;50.70
49679;DHT22;35570;48.218;16.326;2023-05-10T11:21:03;21.40;50.60
49679;DHT22;35570;48.218;16.326;2023-05-10T11:23:57;21.60;51.00
49679;DHT22;35570;48.218;16.326;2023-05-10T11:26:34;21.50;49.90
49679;DHT22;35570;48.218;16.326;2023-05-10T11:29:00;21.20;50.40
49679;DHT22;35570;48.218;16.326;2023-05-10T11:31:28;21.20;50.70
49679;DHT22;35570;48.218;16.326;2023-05-10T11:33:55;21.20;50.80
49679;DHT22;35570;48.218;16.326;2023-05-10T11:38:52;21.00;51.00
49679;DHT22;35570;48.218;16.326;2023-05-10T11:41:19;20.70;51.80
49679;DHT22;35570;48.218;16.326;2023-05-10T11:43:48;21.00;51.50
49679;DHT22;35570;48.218;16.326;2023-05-10T11:46:15;21.30;50.70
49679;DHT22;35570;48.218;16.326;2023-05-10T11:48:43;21.50;50.20
49679;DHT22;35570;48.218;16.326;2023-05-10T11:51:10;21.70;49.90
49679;DHT22;35570;48.218;16.326;2023-05-10T11:53:36;21.90;49.40
49679;DHT22;35570;48.218;16.326;2023-05-10T11:56:09;22.00;48.80
49679;DHT22;35570;48.218;16.326;2023-05-10T11:58:37;22.00;48.70
49679;DHT22;35570;48.218;16.326;2023-05-10T12:01:04;21.60;49.10
49679;DHT22;35570;48.218;16.326;2023-05-10T12:03:31;21.20;49.70
49679;DHT22;35570;48.218;16.326;2023-05-10T12:05:57;21.20;49.70
49679;DHT22;35570;48.218;16.326;2023-05-10T12:08:25;21.30;49.70
49679;DHT22;35570;48.218;16.326;2023-05-10T12:10:51;21.70;50.30
49679;DHT22;35570;48.218;16.326;2023-05-10T12:13:19;22.00;48.20
49679;DHT22;35570;48.218;16.326;2023-05-10T12:15:45;22.10;47.50
49679;DHT22;35570;48.218;16.326;2023-05-10T12:18:12;22.20;46.70
49679;DHT22;35570;48.218;16.326;2023-05-10T12:20:39;22.10;46.60
49679;DHT22;35570;48.218;16.326;2023-05-10T12:23:05;22.00;47.80
49679;DHT22;35570;48.218;16.326;2023-05-10T12:25:34;22.00;46.90
49679;DHT22;35570;48.218;16.326;2023-05-10T12:28:04;21.90;47.60
49679;DHT22;35570;48.218;16.326;2023-05-10T12:30:34;21.90;47.10
49679;DHT22;35570;48.218;16.326;2023-05-10T12:33:18;22.10;47.40
49679;DHT22;35570;48.218;16.326;2023-05-10T12:35:50;22.40;46.80
49679;DHT22;35570;48.218;16.326;2023-05-10T12:38:29;22.50;46.50
49679;DHT22;35570;48.218;16.326;2023-05-10T12:41:16;22.50;46.30
49679;DHT22;35570;48.218;16.326;2023-05-10T12:43:42;22.60;45.90
49679;DHT22;35570;48.218;16.326;2023-05-10T12:46:09;22.50;46.50
49679;DHT22;35570;48.218;16.326;2023-05-10T12:48:36;22.70;47.70
49679;DHT22;35570;48.218;16.326;2023-05-10T12:51:02;22.80;45.60
49679;DHT22;35570;48.218;16.326;2023-05-10T12:53:28;23.00;45.60
49679;DHT22;35570;48.218;16.326;2023-05-10T12:55:54;23.20;43.80
49679;DHT22;35570;48.218;16.326;2023-05-10T12:58:19;23.40;44.20
49679;DHT22;35570;48.218;16.326;2023-05-10T13:00:45;23.30;44.10
49679;DHT22;35570;48.218;16.326;2023-05-10T13:03:11;22.90;44.40
49679;DHT22;35570;48.218;16.326;2023-05-10T13:05:37;22.40;45.20
49679;DHT22;35570;48.218;16.326;2023-05-10T13:08:03;22.20;47.00
49679;DHT22;35570;48.218;16.326;2023-05-10T13:10:30;22.20;46.50
49679;DHT22;35570;48.218;16.326;2023-05-10T13:12:56;22.30;46.30
49679;DHT22;35570;48.218;16.326;2023-05-10T13:15:22;22.00;46.20
49679;DHT22;35570;48.218;16.326;2023-05-10T13:17:48;22.00;46.80
49679;DHT22;35570;48.218;16.326;2023-05-10T13:20:15;22.10;46.50
49679;DHT22;35570;48.218;16.326;2023-05-10T13:22:42;21.80;47.40
49679;DHT22;35570;48.218;16.326;2023-05-10T13:25:08;21.50;48.30
49679;DHT22;35570;48.218;16.326;2023-05-10T13:27:34;21.70;48.30
49679;DHT22;35570;48.218;16.326;2023-05-10T13:29:59;22.00;48.70
49679;DHT22;35570;48.218;16.326;2023-05-10T13:32:26;22.10;47.80
49679;DHT22;35570;48.218;16.326;2023-05-10T13:34:51;22.00;47.20
49679;DHT22;35570;48.218;16.326;2023-05-10T13:37:17;21.80;47.60
49679;DHT22;35570;48.218;16.326;2023-05-10T13:39:43;21.60;48.20
49679;DHT22;35570;48.218;16.326;2023-05-10T13:42:08;21.70;48.00
49679;DHT22;35570;48.218;16.326;2023-05-10T13:44:34;21.60;47.80
49679;DHT22;35570;48.218;16.326;2023-05-10T13:47:01;21.50;48.30
49679;DHT22;35570;48.218;16.326;2023-05-10T13:49:27;21.30;47.80
49679;DHT22;35570;48.218;16.326;2023-05-10T13:51:52;21.50;49.20
49679;DHT22;35570;48.218;16.326;2023-05-10T13:54:18;21.90;47.90
49679;DHT22;35570;48.218;16.326;2023-05-10T13:56:45;21.80;46.50
49679;DHT22;35570;48.218;16.326;2023-05-10T13:59:13;21.50;47.50
49679;DHT22;35570;48.218;16.326;2023-05-10T14:01:42;21.20;47.40
49679;DHT22;35570;48.218;16.326;2023-05-10T14:04:11;21.30;47.70
49679;DHT22;35570;48.218;16.326;2023-05-10T14:06:37;21.70;47.50
49679;DHT22;35570;48.218;16.326;2023-05-10T14:09:03;21.80;47.20
49679;DHT22;35570;48.218;16.326;2023-05-10T14:11:28;22.10;48.50
49679;DHT22;35570;48.218;16.326;2023-05-10T14:13:54;22.30;45.10
49679;DHT22;35570;48.218;16.326;2023-05-10T14:16:20;21.90;45.60
49679;DHT22;35570;48.218;16.326;2023-05-10T14:18:46;21.70;46.30
49679;DHT22;35570;48.218;16.326;2023-05-10T14:21:12;22.20;47.40
49679;DHT22;35570;48.218;16.326;2023-05-10T14:23:38;24.10;43.40
49679;DHT22;35570;48.218;16.326;2023-05-10T14:26:03;25.70;40.30
49679;DHT22;35570;48.218;16.326;2023-05-10T14:28:29;25.60;41.40
49679;DHT22;35570;48.218;16.326;2023-05-10T14:30:55;26.50;39.60
49679;DHT22;35570;48.218;16.326;2023-05-10T14:33:20;27.60;37.70
49679;DHT22;35570;48.218;16.326;2023-05-10T14:35:47;28.80;36.80
49679;DHT22;35570;48.218;16.326;2023-05-10T14:38:14;30.30;35.20
49679;DHT22;35570;48.218;16.326;2023-05-10T14:40:39;31.60;33.50
49679;DHT22;35570;48.218;16.326;2023-05-10T14:43:05;31.80;33.40
49679;DHT22;35570;48.218;16.326;2023-05-10T14:45:31;30.90;32.90
49679;DHT22;35570;48.218;16.326;2023-05-10T14:47:57;29.40;34.30
49679;DHT22;35570;48.218;16.326;2023-05-10T14:50:23;28.00;35.60
49679;DHT22;35570;48.218;16.326;2023-05-10T14:52:48;27.00;36.90
49679;DHT22;35570;48.218;16.326;2023-05-10T14:55:14;26.20;37.40
49679;DHT22;35570;48.218;16.326;2023-05-10T14:57:40;25.70;39.50
49679;DHT22;35570;48.218;16.326;2023-05-10T15:00:06;25.20;39.70
49679;DHT22;35570;48.218;16.326;2023-05-10T15:02:32;24.70;39.30
49679;DHT22;35570;48.218;16.326;2023-05-10T15:04:58;24.00;39.40
49679;DHT22;35570;48.218;16.326;2023-05-10T15:07:23;23.70;40.30
49679;DHT22;35570;48.218;16.326;2023-05-10T15:09:50;23.50;41.60
49679;DHT22;35570;48.218;16.326;2023-05-10T15:12:17;23.10;41.50
49679;DHT22;35570;48.218;16.326;2023-05-10T15:14:43;22.70;41.70
49679;DHT22;35570;48.218;16.326;2023-05-10T15:17:09;22.30;43.30
49679;DHT22;35570;48.218;16.326;2023-05-10T15:19:35;22.50;43.90
49679;DHT22;35570;48.218;16.326;2023-05-10T15:22:01;23.10;41.90
49679;DHT22;35570;48.218;16.326;2023-05-10T15:24:27;24.00;41.20
49679;DHT22;35570;48.218;16.326;2023-05-10T15:26:53;24.50;40.10
49679;DHT22;35570;48.218;16.326;2023-05-10T15:29:19;23.90;40.10
49679;DHT22;35570;48.218;16.326;2023-05-10T15:31:49;22.90;41.60
49679;DHT22;35570;48.218;16.326;2023-05-10T15:34:15;22.40;44.40
49679;DHT22;35570;48.218;16.326;2023-05-10T15:36:41;21.70;43.70
49679;DHT22;35570;48.218;16.326;2023-05-10T15:39:06;21.40;44.30
49679;DHT22;35570;48.218;16.326;2023-05-10T15:41:32;21.00;44.80
49679;DHT22;35570;48.218;16.326;2023-05-10T15:43:58;20.70;45.10
49679;DHT22;35570;48.218;16.326;2023-05-10T15:46:28;20.70;46.50
49679;DHT22;35570;48.218;16.326;2023-05-10T15:48:53;20.60;46.10
49679;DHT22;35570;48.218;16.326;2023-05-10T15:51:19;20.60;46.80
49679;DHT22;35570;48.218;16.326;2023-05-10T15:53:45;20.60;47.40
49679;DHT22;35570;48.218;16.326;2023-05-10T15:56:11;20.50;48.00
49679;DHT22;35570;48.218;16.326;2023-05-10T15:58:40;20.50;48.20
49679;DHT22;35570;48.218;16.326;2023-05-10T16:01:06;20.40;48.90